TimeEDT,TemperatureF,Dew PointF,Humidity,Sea Level PressureIn,VisibilityMPH,Wind Direction,Wind SpeedMPH,Gust SpeedMPH,PrecipitationIn,Events,Conditions,WindDirDegrees,DateUTC
12:53 AM,78.1,73.9,87,29.91,10.0,SSW,5.8,-,N/A,,Clear,200,2013-11-02 04:53:00
1:53 AM,77.0,75.0,94,29.89,10.0,South,8.1,-,N/A,,Clear,180,2013-11-02 05:53:00
2:53 AM,77.0,75.0,94,29.86,10.0,South,6.9,-,N/A,,Clear,190,2013-11-02 06:53:00
3:08 AM,78.8,75.2,89,29.85,10.0,South,8.1,-,N/A,,Partly Cloudy,190,2013-11-02 07:08:00
3:53 AM,78.1,75.0,90,29.84,10.0,SSW,8.1,-,N/A,,Mostly Cloudy,200,2013-11-02 07:53:00
4:03 AM,78.8,75.2,89,29.84,10.0,SSW,9.2,-,N/A,,Scattered Clouds,200,2013-11-02 08:03:00
4:53 AM,78.1,75.0,90,29.83,10.0,SSW,11.5,-,N/A,,Partly Cloudy,200,2013-11-02 08:53:00
5:20 AM,78.8,75.2,89,29.84,10.0,SSW,11.5,-,N/A,,Mostly Cloudy,200,2013-11-02 09:20:00
5:41 AM,78.8,73.4,83,29.83,10.0,SSW,9.2,-,N/A,,Scattered Clouds,200,2013-11-02 09:41:00
5:53 AM,78.1,73.9,87,29.83,10.0,SSW,11.5,-,N/A,,Partly Cloudy,210,2013-11-02 09:53:00
6:53 AM,78.1,73.9,87,29.83,10.0,SSW,9.2,-,N/A,,Clear,200,2013-11-02 10:53:00
7:53 AM,78.1,75.0,90,29.85,10.0,SSW,9.2,-,N/A,,Scattered Clouds,200,2013-11-02 11:53:00
8:53 AM,79.0,73.0,82,29.86,10.0,SSW,10.4,-,N/A,,Overcast,200,2013-11-02 12:53:00
9:53 AM,80.1,73.0,79,29.89,10.0,SSW,12.7,-,N/A,,Overcast,210,2013-11-02 13:53:00
10:12 AM,73.4,68.0,83,29.93,1.5,NNW,15.0,21.9,0.13,Rain,Heavy Rain,330,2013-11-02 14:12:00
10:16 AM,71.6,68.0,88,29.92,0.8,NNW,15.0,25.3,0.19,Rain,Heavy Rain,340,2013-11-02 14:16:00
10:20 AM,71.6,68.0,88,29.93,1.0,NW,15.0,25.3,0.20,Rain,Rain,320,2013-11-02 14:20:00
10:24 AM,71.6,68.0,88,29.93,2.5,NNW,17.3,25.3,0.20,Rain,Light Rain,330,2013-11-02 14:24:00
10:28 AM,69.8,68.0,94,29.93,7.0,NNW,19.6,27.6,0.20,Rain,Light Rain,340,2013-11-02 14:28:00
10:39 AM,69.8,66.2,88,29.92,4.0,NNW,13.8,24.2,0.21,Rain,Light Rain,340,2013-11-02 14:39:00
10:53 AM,69.1,66.9,93,29.93,10.0,North,10.4,-,0.21,,Overcast,350,2013-11-02 14:53:00
11:53 AM,71.1,66.9,87,29.94,10.0,North,5.8,-,0.00,,Overcast,360,2013-11-02 15:53:00
12:53 PM,73.0,61.0,66,29.91,10.0,NNE,4.6,-,N/A,,Overcast,20,2013-11-02 16:53:00
1:53 PM,73.9,63.0,68,29.86,10.0,ENE,5.8,-,0.00,,Overcast,70,2013-11-02 17:53:00
2:53 PM,73.9,61.0,64,29.87,10.0,NW,3.5,-,N/A,,Scattered Clouds,310,2013-11-02 18:53:00
3:53 PM,77.0,63.0,62,29.85,10.0,North,4.6,-,N/A,,Clear,350,2013-11-02 19:53:00
4:53 PM,75.0,64.0,69,29.87,10.0,NNW,8.1,-,N/A,,Partly Cloudy,330,2013-11-02 20:53:00
5:53 PM,72.0,64.9,78,29.89,10.0,NNW,6.9,-,0.00,Rain,Light Rain,330,2013-11-02 21:53:00
6:53 PM,70.0,66.9,90,29.91,10.0,North,4.6,-,0.03,Rain,Light Rain,360,2013-11-02 22:53:00
7:53 PM,69.1,64.9,87,29.90,10.0,NE,3.5,-,0.00,,Partly Cloudy,40,2013-11-02 23:53:00
8:18 PM,69.8,64.4,83,29.91,10.0,NE,4.6,-,N/A,,Partly Cloudy,40,2013-11-03 00:18:00
8:53 PM,68.0,64.0,87,29.92,10.0,North,3.5,-,N/A,,Clear,10,2013-11-03 00:53:00
9:53 PM,68.0,64.0,87,29.95,10.0,North,3.5,-,N/A,,Clear,10,2013-11-03 01:53:00
10:53 PM,68.0,63.0,84,29.97,10.0,North,6.9,-,N/A,,Clear,360,2013-11-03 02:53:00
11:53 PM,68.0,63.0,84,29.98,10.0,North,5.8,-,N/A,,Scattered Clouds,360,2013-11-03 03:53:00